PWSweather.com
Personal Weather Stations
Station Observations
MARRWS
Allansford VictoriaAU 3277

Allansford VictoriaAU 3277

Lat: -38.4003683814149, Lon: 142.569826841354

Elevation: 36

Station Type: Fine Offset X7062

http://home.vicnet.net.au/~marr/Weather/

Latest ConditionsUpdated 10:50:01 PM GMT+10:10 Friday, May 22, 2015
Currently Today's Max Today's Min Today's Average
Temperature 52.9°F11.6°C 59.7°F15.4°C 32.0°F0.0°C 50.2°F10.1°C
Dew Point 44.1°F6.7°C 51.1°F10.6°C 43.2°F6.2°C 46.2°F7.9°C
Winds 3.3 mph SE5.3 kmh SE 6.9 mph S11.1 kmh S - 2.4 mph 3.9 kmh
Wind Gusts 7.6 mph12.2 kmh 11.4 mph18.3 kmh - -
Humidity 72% 74% 0% 53%
Pressure 30.27 in1025.1 mb 30.28 in1025.4 mb 30.12 in1020.0 mb -
Hour Temp Dew Point Humidity Winds Wind Gusts Pressure Precip Precip Rate Daily Precip Total
10:50 PM 52.9°F11.6°C 44.1°F6.7°C 72% 3.3 mph SE5.3 kmh SE 7.6 mph12.2 kmh 30.27 in1025.1 mb 0.00 in0.0 mm 0.00 in0.0 mm 0.00 in0.0 mm
10:40 PM 53.2°F11.8°C 44.5°F6.9°C 72% 3.5 mph SE5.6 kmh SE 6.9 mph11.1 kmh 30.27 in1025.1 mb 0.00 in0.0 mm 0.00 in0.0 mm 0.00 in0.0 mm
10:30 PM 53.4°F11.9°C 44.6°F7.0°C 72% 3.0 mph SE4.8 kmh SE 6.0 mph9.7 kmh 30.27 in1025.1 mb 0.00 in0.0 mm 0.00 in0.0 mm 0.00 in0.0 mm
10:20 PM 53.4°F11.9°C 44.6°F7.0°C 72% 3.3 mph SE5.3 kmh SE 9.2 mph14.8 kmh 30.27 in1025.1 mb 0.00 in0.0 mm 0.00 in0.0 mm 0.00 in0.0 mm
10:10 PM 53.2°F11.8°C 44.1°F6.7°C 71% 3.6 mph SE5.8 kmh SE 11.4 mph18.3 kmh 30.28 in1025.4 mb 0.00 in0.0 mm 0.00 in0.0 mm 0.00 in0.0 mm
10:00 PM 53.1°F11.7°C 44.3°F6.8°C 72% 2.6 mph SE4.2 kmh SE 5.4 mph8.7 kmh 30.27 in1025.1 mb 0.00 in0.0 mm 0.00 in0.0 mm 0.00 in0.0 mm
09:50 PM 53.1°F11.7°C 43.9°F6.6°C 71% 3.0 mph SE4.8 kmh SE 9.2 mph14.8 kmh 30.28 in1025.4 mb 0.00 in0.0 mm 0.00 in0.0 mm 0.00 in0.0 mm
09:40 PM 53.2°F11.8°C 44.5°F6.9°C 72% 2.7 mph SSE4.3 kmh SSE 9.2 mph14.8 kmh 30.28 in1025.4 mb 0.00 in0.0 mm 0.00 in0.0 mm 0.00 in0.0 mm
09:30 PM 53.4°F11.9°C 45.0°F7.2°C 73% 4.3 mph SE6.9 kmh SE 7.6 mph12.2 kmh 30.28 in1025.4 mb 0.00 in0.0 mm 0.00 in0.0 mm 0.00 in0.0 mm
09:20 PM 53.4°F11.9°C 45.3°F7.4°C 74% 3.5 mph SE5.6 kmh SE 8.3 mph13.4 kmh 30.28 in1025.4 mb 0.00 in0.0 mm 0.00 in0.0 mm 0.00 in0.0 mm
09:10 PM 53.6°F12.0°C 45.2°F7.3°C 73% 2.2 mph SE3.5 kmh SE 6.0 mph9.7 kmh 30.28 in1025.4 mb 0.00 in0.0 mm 0.00 in0.0 mm 0.00 in0.0 mm
09:00 PM 53.6°F12.0°C 45.2°F7.3°C 73% 3.5 mph SE5.6 kmh SE 7.6 mph12.2 kmh 30.27 in1025.1 mb 0.00 in0.0 mm 0.00 in0.0 mm 0.00 in0.0 mm
08:50 PM 53.8°F12.1°C 45.3°F7.4°C 73% 2.1 mph SE3.4 kmh SE 6.0 mph9.7 kmh 30.28 in1025.4 mb 0.00 in0.0 mm 0.00 in0.0 mm 0.00 in0.0 mm
08:40 PM 53.6°F12.0°C 45.2°F7.3°C 73% 2.0 mph SE3.2 kmh SE 4.5 mph7.2 kmh 30.28 in1025.4 mb 0.00 in0.0 mm 0.00 in0.0 mm 0.00 in0.0 mm
08:30 PM 53.2°F11.8°C 44.8°F7.1°C 73% 1.6 mph ESE2.6 kmh ESE 5.4 mph8.7 kmh 30.28 in1025.4 mb 0.00 in0.0 mm 0.00 in0.0 mm 0.00 in0.0 mm
08:20 PM 53.1°F11.7°C 44.6°F7.0°C 73% 1.1 mph SE1.8 kmh SE 5.4 mph8.7 kmh 30.27 in1025.1 mb 0.00 in0.0 mm 0.00 in0.0 mm 0.00 in0.0 mm
08:10 PM 52.9°F11.6°C 44.1°F6.7°C 72% 0.3 mph SE0.5 kmh SE 2.2 mph3.5 kmh 30.28 in1025.4 mb 0.00 in0.0 mm 0.00 in0.0 mm 0.00 in0.0 mm
08:00 PM 52.9°F11.6°C 44.1°F6.7°C 72% 1.5 mph SE2.4 kmh SE 6.0 mph9.7 kmh 30.27 in1025.1 mb 0.00 in0.0 mm 0.00 in0.0 mm 0.00 in0.0 mm
07:50 PM 52.7°F11.5°C 43.9°F6.6°C 72% 1.1 mph SE1.8 kmh SE 6.0 mph9.7 kmh 30.27 in1025.1 mb 0.00 in0.0 mm 0.00 in0.0 mm 0.00 in0.0 mm
07:40 PM 52.7°F11.5°C 43.6°F6.4°C 71% 1.0 mph SE1.6 kmh SE 3.8 mph6.1 kmh 30.27 in1025.1 mb 0.00 in0.0 mm 0.00 in0.0 mm 0.00 in0.0 mm
07:30 PM 52.9°F11.6°C 43.7°F6.5°C 71% 1.5 mph SE2.4 kmh SE 5.4 mph8.7 kmh 30.26 in1024.7 mb 0.00 in0.0 mm 0.00 in0.0 mm 0.00 in0.0 mm
07:20 PM 53.1°F11.7°C 43.5°F6.4°C 70% 1.6 mph SE2.6 kmh SE 6.0 mph9.7 kmh 30.27 in1025.1 mb 0.00 in0.0 mm 0.00 in0.0 mm 0.00 in0.0 mm
07:10 PM 53.1°F11.7°C 43.2°F6.2°C 69% 2.4 mph SSE3.9 kmh SSE 6.9 mph11.1 kmh 30.26 in1024.7 mb 0.00 in0.0 mm 0.00 in0.0 mm 0.00 in0.0 mm
07:00 PM 53.2°F11.8°C 43.7°F6.5°C 70% 3.5 mph SSE5.6 kmh SSE 9.2 mph14.8 kmh 30.26 in1024.7 mb 0.00 in0.0 mm 0.00 in0.0 mm 0.00 in0.0 mm
06:50 PM 53.2°F11.8°C 44.1°F6.7°C 71% 3.9 mph SE6.3 kmh SE 8.3 mph13.4 kmh 30.26 in1024.7 mb 0.00 in0.0 mm 0.00 in0.0 mm 0.00 in0.0 mm
06:40 PM 52.9°F11.6°C 44.1°F6.7°C 72% 2.9 mph SE4.7 kmh SE 6.0 mph9.7 kmh 30.26 in1024.7 mb 0.00 in0.0 mm 0.00 in0.0 mm 0.00 in0.0 mm
06:30 PM 52.9°F11.6°C 43.7°F6.5°C 71% 1.7 mph SE2.7 kmh SE 5.4 mph8.7 kmh 30.25 in1024.4 mb 0.00 in0.0 mm 0.00 in0.0 mm 0.00 in0.0 mm
06:20 PM 52.9°F11.6°C 43.7°F6.5°C 71% 1.8 mph SE2.9 kmh SE 5.4 mph8.7 kmh 30.25 in1024.4 mb 0.00 in0.0 mm 0.00 in0.0 mm 0.00 in0.0 mm
06:10 PM 52.9°F11.6°C 43.4°F6.3°C 70% 2.3 mph SE3.7 kmh SE 5.4 mph8.7 kmh 30.25 in1024.4 mb 0.00 in0.0 mm 0.00 in0.0 mm 0.00 in0.0 mm
06:00 PM 52.9°F11.6°C 43.4°F6.3°C 70% 2.4 mph SE3.9 kmh SE 5.4 mph8.7 kmh 30.25 in1024.4 mb 0.00 in0.0 mm 0.00 in0.0 mm 0.00 in0.0 mm
05:50 PM 53.1°F11.7°C 43.5°F6.4°C 70% 2.5 mph SE4.0 kmh SE 7.6 mph12.2 kmh 30.24 in1024.0 mb 0.00 in0.0 mm 0.00 in0.0 mm 0.00 in0.0 mm
05:40 PM 53.2°F11.8°C 43.7°F6.5°C 70% 2.5 mph SE4.0 kmh SE 6.9 mph11.1 kmh 30.24 in1024.0 mb 0.00 in0.0 mm 0.00 in0.0 mm 0.00 in0.0 mm
05:30 PM 53.4°F11.9°C 44.3°F6.8°C 71% 3.0 mph SSE4.8 kmh SSE 7.6 mph12.2 kmh 30.24 in1024.0 mb 0.00 in0.0 mm 0.00 in0.0 mm 0.00 in0.0 mm
05:20 PM 53.8°F12.1°C 44.2°F6.8°C 70% 3.0 mph SSE4.8 kmh SSE 7.6 mph12.2 kmh 30.24 in1024.0 mb 0.00 in0.0 mm 0.00 in0.0 mm 0.00 in0.0 mm
05:10 PM 54.0°F12.2°C 44.0°F6.7°C 69% 3.1 mph SSE5.0 kmh SSE 9.8 mph15.8 kmh 30.24 in1024.0 mb 0.00 in0.0 mm 0.00 in0.0 mm 0.00 in0.0 mm
05:00 PM 54.1°F12.3°C 43.8°F6.6°C 68% 2.9 mph SE4.7 kmh SE 9.2 mph14.8 kmh 30.23 in1023.7 mb 0.00 in0.0 mm 0.00 in0.0 mm 0.00 in0.0 mm
04:50 PM 54.3°F12.4°C 44.0°F6.7°C 68% 2.6 mph SSE4.2 kmh SSE 6.9 mph11.1 kmh 30.24 in1024.0 mb 0.00 in0.0 mm 0.00 in0.0 mm 0.00 in0.0 mm
04:40 PM 54.7°F12.6°C 44.3°F6.8°C 68% 3.0 mph SE4.8 kmh SE 7.6 mph12.2 kmh 30.23 in1023.7 mb 0.00 in0.0 mm 0.00 in0.0 mm 0.00 in0.0 mm
04:30 PM 54.9°F12.7°C 44.5°F6.9°C 68% 3.9 mph SE6.3 kmh SE 7.6 mph12.2 kmh 30.23 in1023.7 mb 0.00 in0.0 mm 0.00 in0.0 mm 0.00 in0.0 mm
04:20 PM 55.0°F12.8°C 44.7°F7.1°C 68% 3.2 mph SE5.1 kmh SE 6.9 mph11.1 kmh 30.23 in1023.7 mb 0.00 in0.0 mm 0.00 in0.0 mm 0.00 in0.0 mm
04:10 PM 55.6°F13.1°C 44.4°F6.9°C 66% 2.8 mph SSE4.5 kmh SSE 7.6 mph12.2 kmh 30.22 in1023.4 mb 0.00 in0.0 mm 0.00 in0.0 mm 0.00 in0.0 mm
04:00 PM 55.6°F13.1°C 44.0°F6.7°C 65% 2.9 mph SSE4.7 kmh SSE 8.3 mph13.4 kmh 30.22 in1023.4 mb 0.00 in0.0 mm 0.00 in0.0 mm 0.00 in0.0 mm
03:50 PM 55.8°F13.2°C 44.2°F6.8°C 65% 3.3 mph SSE5.3 kmh SSE 8.3 mph13.4 kmh 30.22 in1023.4 mb 0.00 in0.0 mm 0.00 in0.0 mm 0.00 in0.0 mm
03:40 PM 55.8°F13.2°C 44.6°F7.0°C 66% 3.4 mph SSE5.5 kmh SSE 8.3 mph13.4 kmh 30.22 in1023.4 mb 0.00 in0.0 mm 0.00 in0.0 mm 0.00 in0.0 mm
03:30 PM 55.8°F13.2°C 44.6°F7.0°C 66% 3.1 mph SSE5.0 kmh SSE 6.9 mph11.1 kmh 30.22 in1023.4 mb 0.00 in0.0 mm 0.00 in0.0 mm 0.00 in0.0 mm
03:20 PM 56.3°F13.5°C 45.1°F7.3°C 66% 3.8 mph SE6.1 kmh SE 9.2 mph14.8 kmh 30.22 in1023.4 mb 0.00 in0.0 mm 0.00 in0.0 mm 0.00 in0.0 mm
03:10 PM 56.1°F13.4°C 45.3°F7.4°C 67% 3.5 mph S5.6 kmh S 8.3 mph13.4 kmh 30.22 in1023.4 mb 0.00 in0.0 mm 0.00 in0.0 mm 0.00 in0.0 mm
03:00 PM 56.8°F13.8°C 45.6°F7.6°C 66% 1.1 mph ESE1.8 kmh ESE 3.8 mph6.1 kmh 30.22 in1023.4 mb 0.00 in0.0 mm 0.00 in0.0 mm 0.00 in0.0 mm
02:50 PM 57.4°F14.1°C 45.3°F7.4°C 64% 2.2 mph SE3.5 kmh SE 4.5 mph7.2 kmh 30.22 in1023.4 mb 0.00 in0.0 mm 0.00 in0.0 mm 0.00 in0.0 mm
02:40 PM 57.7°F14.3°C 45.7°F7.6°C 64% 1.8 mph SSE2.9 kmh SSE 6.9 mph11.1 kmh 30.22 in1023.4 mb 0.00 in0.0 mm 0.00 in0.0 mm 0.00 in0.0 mm
02:30 PM 57.7°F14.3°C 45.2°F7.3°C 63% 3.1 mph SE5.0 kmh SE 7.6 mph12.2 kmh 30.22 in1023.4 mb 0.00 in0.0 mm 0.00 in0.0 mm 0.00 in0.0 mm
02:20 PM 57.6°F14.2°C 45.5°F7.5°C 64% 4.5 mph S7.2 kmh S 9.8 mph15.8 kmh 30.22 in1023.4 mb 0.00 in0.0 mm 0.00 in0.0 mm 0.00 in0.0 mm
02:10 PM 57.7°F14.3°C 45.2°F7.3°C 63% 4.3 mph SSE6.9 kmh SSE 9.2 mph14.8 kmh 30.22 in1023.4 mb 0.00 in0.0 mm 0.00 in0.0 mm 0.00 in0.0 mm
02:00 PM 58.6°F14.8°C 46.1°F7.8°C 63% 4.3 mph SE6.9 kmh SE 8.3 mph13.4 kmh 30.22 in1023.4 mb 0.00 in0.0 mm 0.00 in0.0 mm 0.00 in0.0 mm
01:50 PM 58.8°F14.9°C 45.8°F7.7°C 62% 3.3 mph SE5.3 kmh SE 9.8 mph15.8 kmh 30.22 in1023.4 mb 0.00 in0.0 mm 0.00 in0.0 mm 0.00 in0.0 mm
01:40 PM 58.6°F14.8°C 46.5°F8.1°C 64% 4.4 mph ESE7.1 kmh ESE 7.6 mph12.2 kmh 30.22 in1023.4 mb 0.00 in0.0 mm 0.00 in0.0 mm 0.00 in0.0 mm
01:30 PM 58.6°F14.8°C 46.5°F8.1°C 64% 4.4 mph SE7.1 kmh SE 8.3 mph13.4 kmh 30.22 in1023.4 mb 0.00 in0.0 mm 0.00 in0.0 mm 0.00 in0.0 mm
01:20 PM 58.5°F14.7°C 46.8°F8.2°C 65% 4.2 mph SE6.8 kmh SE 8.3 mph13.4 kmh 30.22 in1023.4 mb 0.00 in0.0 mm 0.00 in0.0 mm 0.00 in0.0 mm
01:10 PM 58.3°F14.6°C 46.2°F7.9°C 64% 3.8 mph SE6.1 kmh SE 5.4 mph8.7 kmh 30.22 in1023.4 mb 0.00 in0.0 mm 0.00 in0.0 mm 0.00 in0.0 mm
01:00 PM 59.0°F15.0°C 45.1°F7.3°C 60% 4.5 mph SE7.2 kmh SE 6.0 mph9.7 kmh 30.22 in1023.4 mb 0.00 in0.0 mm 0.00 in0.0 mm 0.00 in0.0 mm
12:50 PM 59.0°F15.0°C 45.1°F7.3°C 60% 4.5 mph SE7.2 kmh SE 6.0 mph9.7 kmh 30.22 in1023.4 mb 0.00 in0.0 mm 0.00 in0.0 mm 0.00 in0.0 mm
12:40 PM 59.0°F15.0°C 45.1°F7.3°C 60% 4.5 mph SE7.2 kmh SE 6.0 mph9.7 kmh 30.22 in1023.4 mb 0.00 in0.0 mm 0.00 in0.0 mm 0.00 in0.0 mm
12:30 PM 59.0°F15.0°C 45.1°F7.3°C 60% 3.3 mph SE5.3 kmh SE 7.6 mph12.2 kmh 30.22 in1023.4 mb 0.00 in0.0 mm 0.00 in0.0 mm 0.00 in0.0 mm
12:20 PM 59.4°F15.2°C 45.0°F7.2°C 59% 3.6 mph SE5.8 kmh SE 6.9 mph11.1 kmh 30.23 in1023.7 mb 0.00 in0.0 mm 0.00 in0.0 mm 0.00 in0.0 mm
12:10 PM 59.7°F15.4°C 45.4°F7.4°C 59% 5.5 mph SE8.9 kmh SE 9.8 mph15.8 kmh 30.23 in1023.7 mb 0.00 in0.0 mm 0.00 in0.0 mm 0.00 in0.0 mm
12:00 PM 59.4°F15.2°C 45.9°F7.7°C 61% 5.2 mph SE8.4 kmh SE 7.6 mph12.2 kmh 30.23 in1023.7 mb 0.00 in0.0 mm 0.00 in0.0 mm 0.00 in0.0 mm
11:50 AM 58.8°F14.9°C 45.8°F7.7°C 62% 4.8 mph SE7.7 kmh SE 10.7 mph17.2 kmh 30.24 in1024.0 mb 0.00 in0.0 mm 0.00 in0.0 mm 0.00 in0.0 mm
11:40 AM 58.3°F14.6°C 46.2°F7.9°C 64% 3.1 mph S5.0 kmh S 5.4 mph8.7 kmh 30.24 in1024.0 mb 0.00 in0.0 mm 0.00 in0.0 mm 0.00 in0.0 mm
11:30 AM 58.3°F14.6°C 46.2°F7.9°C 64% 3.1 mph S5.0 kmh S 5.4 mph8.7 kmh 30.24 in1024.0 mb 0.00 in0.0 mm 0.00 in0.0 mm 0.00 in0.0 mm
11:20 AM 58.3°F14.6°C 46.2°F7.9°C 64% 4.0 mph SE6.4 kmh SE 7.6 mph12.2 kmh 30.24 in1024.0 mb 0.00 in0.0 mm 0.00 in0.0 mm 0.00 in0.0 mm
11:10 AM 58.6°F14.8°C 46.9°F8.3°C 65% 3.4 mph SE5.5 kmh SE 7.6 mph12.2 kmh 30.24 in1024.0 mb 0.00 in0.0 mm 0.00 in0.0 mm 0.00 in0.0 mm
11:01 AM 32.0°F0.0°C 51.1°F10.6°C 0% Calm Calm -- 30.18 in1022.0 mb 0.00 in0.0 mm 0.00 in0.0 mm 0.00 in0.0 mm
11:00 AM 32.0°F0.0°C 51.1°F10.6°C 0% Calm Calm -- 30.12 in1020.0 mb 0.00 in0.0 mm 0.00 in0.0 mm 0.05 in1.3 mm
10:50 AM 57.9°F14.4°C 46.2°F7.9°C 65% 6.9 mph S11.1 kmh S 9.2 mph14.8 kmh 30.24 in1024.0 mb 0.00 in0.0 mm 0.00 in0.0 mm 0.00 in0.0 mm